Time;durP1;ratioP1;P1;durP2;ratioP2;P2;SDS_P1;SDS_P2;PMS_P1;PMS_P2;Temp;Humidity;BMP_temperature;BMP_pressure;BME280_temperature;BME280_humidity;BME280_pressure;Samples;Min_cycle;Max_cycle;Signal;HPM_P1;HPM_P2
2022/01/14 00:01:18;;;;;;;33.53;14.43;;;;;;;-4.39;81.41;97931.03;5093242;28;20449;-32
2022/01/14 00:03:45;;;;;;;34.37;14.07;;;;;;;-4.32;81.60;97929.63;5093575;28;20923;-32
2022/01/14 00:06:12;;;;;;;32.97;15.00;;;;;;;-4.25;81.30;97927.41;5093259;28;20930;-32
2022/01/14 00:08:39;;;;;;;32.60;12.60;;;;;;;-4.22;81.03;97932.34;5093490;28;20435;-30
2022/01/14 00:11:14;;;;;;;19.67;7.90;;;;;;;-4.21;81.44;97937.44;5093188;28;20454;-31
2022/01/14 00:13:53;;;;;;;27.23;10.20;;;;;;;-4.14;81.13;97945.56;5093249;28;20795;-32
2022/01/14 00:16:22;;;;;;;20.27;10.27;;;;;;;-4.12;81.28;97954.88;5093157;28;20438;-31
2022/01/14 00:18:49;;;;;;;19.00;9.40;;;;;;;-4.07;81.08;97967.50;5093348;28;20486;-31
2022/01/14 00:21:16;;;;;;;26.50;11.23;;;;;;;-4.03;81.06;97952.53;5093194;28;20439;-31
2022/01/14 00:23:45;;;;;;;19.83;9.10;;;;;;;-3.96;80.55;97948.53;5094698;28;20521;-32
2022/01/14 00:31:46;;;;;;;17.63;8.20;;;;;;;-3.79;79.29;97948.06;5097042;28;20496;-32
2022/01/14 00:34:14;;;;;;;32.37;11.87;;;;;;;-3.80;79.03;97948.19;5097155;28;20433;-32
2022/01/14 00:36:42;;;;;;;30.80;11.80;;;;;;;-3.98;79.04;97921.88;5096961;28;20449;-31
2022/01/14 00:39:12;;;;;;;19.47;8.80;;;;;;;-3.73;78.46;97963.16;5096615;28;20529;-31
2022/01/14 00:41:40;;;;;;;14.53;7.50;;;;;;;-3.68;78.31;97959.41;5096666;28;20447;-31
2022/01/14 00:44:11;;;;;;;11.63;7.30;;;;;;;-3.65;78.78;97962.59;5096635;28;20449;-33
2022/01/14 00:46:39;;;;;;;36.00;11.60;;;;;;;-3.62;79.22;97958.94;5096651;28;20518;-32
2022/01/14 00:49:08;;;;;;;19.20;7.37;;;;;;;-3.62;78.84;97944.16;5096900;28;20457;-31
2022/01/14 00:51:36;;;;;;;20.07;8.00;;;;;;;-3.74;79.37;97932.97;5096489;28;20442;-32
2022/01/14 00:54:04;;;;;;;15.63;7.90;;;;;;;-3.68;79.78;97944.66;5096530;28;20474;-32
2022/01/14 00:56:44;;;;;;;18.60;8.13;;;;;;;-3.72;79.57;97936.28;5096207;28;20470;-31
2022/01/14 00:59:17;;;;;;;17.43;8.03;;;;;;;-3.65;79.67;97941.00;5096288;28;20480;-32
2022/01/14 01:01:46;;;;;;;12.40;6.43;;;;;;;-3.62;79.69;97938.16;5096681;28;20435;-32
2022/01/14 01:04:19;;;;;;;11.37;5.53;;;;;;;-3.60;79.50;97924.13;5096271;28;20945;-32
2022/01/14 01:06:48;;;;;;;14.53;6.93;;;;;;;-3.60;79.84;97924.13;5096391;28;20514;-32
2022/01/14 01:09:17;;;;;;;20.80;8.33;;;;;;;-3.58;79.95;97927.41;5096161;28;20447;-31
2022/01/14 01:11:51;;;;;;;14.20;6.47;;;;;;;-3.59;80.48;97915.41;5096906;28;20925;-32
2022/01/14 01:14:22;;;;;;;15.93;8.10;;;;;;;-3.57;80.40;97915.25;5096117;28;20431;-32
2022/01/14 01:16:50;;;;;;;14.90;6.67;;;;;;;-3.57;80.41;97920.44;5096356;28;20845;-32
2022/01/14 01:19:18;;;;;;;27.93;8.73;;;;;;;-3.52;80.67;97915.75;5095906;28;20974;-32
2022/01/14 01:21:46;;;;;;;18.63;8.07;;;;;;;-3.46;79.95;97907.47;5096233;28;20439;-31
2022/01/14 01:24:15;;;;;;;20.70;9.80;;;;;;;-3.54;77.38;97907.25;5096139;28;20772;-32
2022/01/14 01:26:43;;;;;;;20.03;8.93;;;;;;;-3.93;76.59;97912.00;5096222;28;20476;-31
2022/01/14 01:29:32;;;;;;;21.60;10.63;;;;;;;-4.16;77.72;97906.78;5096204;28;20507;-31
2022/01/14 01:31:59;;;;;;;17.93;8.70;;;;;;;-4.32;78.37;97891.56;5095696;28;20431;-32
2022/01/14 01:34:28;;;;;;;30.73;10.77;;;;;;;-4.41;79.27;97894.00;5095528;28;20439;-32
2022/01/14 01:36:57;;;;;;;21.20;10.50;;;;;;;-4.50;79.18;97873.97;5095565;28;20439;-32
2022/01/14 01:39:26;;;;;;;29.50;13.03;;;;;;;-4.54;79.74;97866.44;5095562;28;20485;-31
2022/01/14 01:41:56;;;;;;;23.10;12.30;;;;;;;-4.58;79.80;97870.19;5095633;28;20443;-31
2022/01/14 01:44:25;;;;;;;35.07;12.57;;;;;;;-4.64;80.27;97864.66;5095571;28;20526;-33
2022/01/14 01:46:53;;;;;;;24.33;11.40;;;;;;;-4.89;80.56;97825.00;5095778;28;20442;-32
2022/01/14 01:49:23;;;;;;;28.47;12.77;;;;;;;-4.91;80.79;97826.88;5095362;28;20450;-32
2022/01/14 01:51:52;;;;;;;26.23;11.90;;;;;;;-4.78;81.42;97842.34;5095498;28;20447;-32
2022/01/14 01:54:20;;;;;;;17.93;8.30;;;;;;;-4.77;81.33;97838.81;5095577;28;20445;-32
2022/01/14 01:56:49;;;;;;;20.23;10.37;;;;;;;-4.90;81.53;97819.91;5095097;28;20475;-33
2022/01/14 01:59:17;;;;;;;19.83;9.80;;;;;;;-4.74;81.71;97828.22;5095145;28;20493;-32
2022/01/14 02:01:45;;;;;;;13.37;7.07;;;;;;;-4.67;83.62;97824.22;5095240;28;20442;-31
2022/01/14 02:04:13;;;;;;;17.73;7.77;;;;;;;-4.56;83.80;97818.22;5095146;28;20919;-31
2022/01/14 02:06:41;;;;;;;20.57;9.63;;;;;;;-4.54;82.83;97813.75;5095349;28;20435;-32
2022/01/14 02:09:12;;;;;;;16.97;8.40;;;;;;;-4.60;82.47;97803.88;5094959;28;20926;-32
2022/01/14 02:11:39;;;;;;;18.30;9.37;;;;;;;-4.54;82.07;97812.00;5095050;28;20431;-31
2022/01/14 02:14:14;;;;;;;33.13;12.00;;;;;;;-4.58;81.73;97802.81;5095311;28;20442;-32
2022/01/14 02:19:27;;;;;;;43.80;16.50;;;;;;;-4.63;81.63;97784.16;5092070;28;20483;-33
2022/01/14 02:22:11;;;;;;;27.37;10.67;;;;;;;-4.62;81.47;97772.88;5095109;28;20431;-33
2022/01/14 02:25:06;;;;;;;21.43;8.20;;;;;;;-4.66;81.13;97774.03;5095127;28;20510;-33
2022/01/14 02:27:37;;;;;;;20.20;8.00;;;;;;;-4.71;81.26;97775.31;5095246;28;20861;-31
2022/01/14 02:30:05;;;;;;;18.10;7.97;;;;;;;-4.85;81.66;97784.16;5094972;28;20839;-31
2022/01/14 02:32:32;;;;;;;19.37;8.10;;;;;;;-4.79;83.46;97773.31;5094597;28;20926;-31
2022/01/14 02:35:00;;;;;;;13.50;7.07;;;;;;;-4.62;85.91;97767.69;5094495;28;20808;-31
2022/01/14 02:37:28;;;;;;;18.50;11.60;;;;;;;-4.35;86.77;97776.88;5095227;28;20442;-31
2022/01/14 02:39:56;;;;;;;19.80;9.67;;;;;;;-4.08;86.71;97771.31;5094704;28;20450;-33
2022/01/14 02:42:23;;;;;;;17.83;8.23;;;;;;;-3.85;86.48;97764.31;5094389;28;20439;-31
2022/01/14 02:44:53;;;;;;;14.20;6.80;;;;;;;-3.63;86.53;97752.22;5094298;28;20443;-31
2022/01/14 02:47:20;;;;;;;8.73;3.70;;;;;;;-3.39;85.73;97739.00;5093975;28;20466;-31
2022/01/14 02:49:47;;;;;;;8.80;4.20;;;;;;;-3.13;85.06;97729.06;5094184;28;20443;-31
2022/01/14 02:52:14;;;;;;;7.00;4.70;;;;;;;-2.88;83.90;97718.25;5094258;28;20508;-31
2022/01/14 02:55:02;;;;;;;8.10;5.70;;;;;;;-2.68;83.05;97723.56;5094151;28;20436;-31
2022/01/14 02:57:32;;;;;;;7.03;4.33;;;;;;;-2.61;82.20;97703.88;5094441;28;20479;-31
2022/01/14 03:00:01;;;;;;;11.20;5.87;;;;;;;-2.43;81.49;97711.88;5094025;28;20446;-31
2022/01/14 03:02:31;;;;;;;9.40;4.90;;;;;;;-2.44;79.56;97693.81;5094874;28;20496;-32
2022/01/14 03:04:59;;;;;;;9.50;6.70;;;;;;;-2.52;79.15;97703.09;5094310;28;20798;-32
2022/01/14 03:07:27;;;;;;;21.77;7.87;;;;;;;-2.64;79.62;97704.16;5094212;28;20990;-31
2022/01/14 03:09:56;;;;;;;16.87;8.90;;;;;;;-2.70;80.63;97699.47;5093840;28;20447;-32
2022/01/14 03:12:23;;;;;;;13.63;6.17;;;;;;;-2.74;81.40;97703.28;5093909;28;20455;-31
2022/01/14 03:14:50;;;;;;;10.10;6.37;;;;;;;-2.75;82.06;97710.25;5094686;28;20450;-32
2022/01/14 03:17:18;;;;;;;10.50;4.97;;;;;;;-2.79;82.45;97714.06;5094319;28;20782;-32
2022/01/14 03:19:46;;;;;;;11.87;4.70;;;;;;;-2.79;82.88;97705.44;5093757;28;20490;-31
2022/01/14 03:22:25;;;;;;;6.97;3.63;;;;;;;-2.95;83.03;97677.31;5094049;28;20443;-31
2022/01/14 03:27:38;;;;;;;8.57;3.97;;;;;;;-2.79;82.63;97700.25;5094064;28;20457;-31
2022/01/14 03:30:06;;;;;;;5.57;3.40;;;;;;;-2.80;82.82;97690.78;5093974;28;20443;-32
2022/01/14 03:32:34;;;;;;;8.60;4.00;;;;;;;-2.80;82.89;97685.59;5093676;28;20442;-31
2022/01/14 03:35:01;;;;;;;7.93;4.47;;;;;;;-2.80;83.04;97691.59;5093512;28;20453;-31
2022/01/14 03:37:28;;;;;;;12.27;5.60;;;;;;;-2.79;83.13;97684.66;5093521;28;20625;-31
2022/01/14 03:39:55;;;;;;;11.60;4.57;;;;;;;-2.82;83.04;97680.50;5093374;28;20994;-31
2022/01/14 03:42:22;;;;;;;8.80;4.30;;;;;;;-2.80;83.28;97676.00;5093563;28;20443;-31
2022/01/14 03:44:51;;;;;;;13.60;3.80;;;;;;;-2.93;83.51;97663.22;5093497;28;20934;-32
2022/01/14 03:47:19;;;;;;;10.90;4.60;;;;;;;-2.80;83.73;97672.59;5093629;28;20530;-31
2022/01/14 03:49:46;;;;;;;10.40;4.97;;;;;;;-2.81;84.48;97670.97;5093460;28;20442;-31
2022/01/14 03:52:13;;;;;;;6.40;3.87;;;;;;;-2.80;84.41;97677.78;5093619;28;20439;-30
2022/01/14 03:54:41;;;;;;;10.87;3.80;;;;;;;-2.81;84.39;97665.78;5093382;28;20471;-31
2022/01/14 03:57:08;;;;;;;13.37;4.60;;;;;;;-2.81;84.09;97670.97;5093234;28;20467;-31
2022/01/14 03:59:35;;;;;;;10.70;4.70;;;;;;;-2.82;84.20;97664.91;5096157;28;20490;-31
2022/01/14 04:02:05;;;;;;;11.97;4.50;;;;;;;-2.79;84.03;97664.69;5097548;28;20965;-32
2022/01/14 04:04:33;;;;;;;10.63;4.53;;;;;;;-2.75;83.90;97665.25;5098053;28;20442;-31
2022/01/14 04:07:00;;;;;;;10.13;3.77;;;;;;;-2.72;83.69;97663.19;5097379;28;20922;-31
2022/01/14 04:09:29;;;;;;;6.00;3.43;;;;;;;-2.69;83.73;97649.09;5097609;28;20453;-31
2022/01/14 04:12:00;;;;;;;10.63;5.63;;;;;;;-2.68;83.49;97642.97;5097318;28;20447;-31
2022/01/14 04:17:14;;;;;;;7.33;3.67;;;;;;;-2.71;83.12;97630.22;5097329;28;20426;-31
2022/01/14 04:19:41;;;;;;;8.93;5.00;;;;;;;-2.70;83.12;97631.88;5097098;28;20494;-31
2022/01/14 04:22:08;;;;;;;13.50;7.13;;;;;;;-2.74;83.51;97631.31;5097113;28;20439;-31
2022/01/14 04:24:35;;;;;;;13.50;8.70;;;;;;;-2.71;83.62;97638.00;5097242;28;20449;-31
2022/01/14 04:27:03;;;;;;;52.00;14.83;;;;;;;-2.69;83.29;97636.09;5097054;28;20435;-31
2022/01/14 04:29:32;;;;;;;20.40;10.37;;;;;;;-2.70;83.37;97642.28;5097123;28;20443;-31
2022/01/14 04:31:59;;;;;;;34.13;19.43;;;;;;;-2.78;82.60;97642.09;5096905;28;20529;-32
2022/01/14 04:34:28;;;;;;;25.50;15.43;;;;;;;-2.87;82.14;97635.91;5096889;28;20446;-31
2022/01/14 04:36:55;;;;;;;16.13;8.97;;;;;;;-2.94;81.29;97638.22;5096809;28;20450;-31
2022/01/14 04:39:22;;;;;;;19.57;8.10;;;;;;;-3.11;80.45;97644.84;5096763;28;20544;-31
2022/01/14 04:41:49;;;;;;;13.80;8.40;;;;;;;-3.25;80.85;97636.56;5097057;28;20446;-32
2022/01/14 04:44:16;;;;;;;28.60;17.07;;;;;;;-3.41;81.62;97629.25;5096992;28;20439;-32
2022/01/14 04:47:15;;;;;;;14.83;8.80;;;;;;;-3.46;82.33;97628.78;5097172;28;20446;-32
2022/01/14 04:49:44;;;;;;;29.53;13.00;;;;;;;-3.53;82.32;97629.31;5096905;28;20455;-32
2022/01/14 04:54:56;;;;;;;47.20;21.40;;;;;;;-3.61;82.96;97615.31;5096261;28;20930;-32
2022/01/14 05:00:18;;;;;;;61.33;26.53;;;;;;;-3.73;83.88;97607.59;5096009;28;20486;-34
2022/01/14 05:02:45;;;;;;;50.27;21.80;;;;;;;-3.71;84.81;97590.09;5096296;28;20941;-33
2022/01/14 05:05:21;;;;;;;68.17;22.23;;;;;;;-3.59;86.27;97601.25;5096697;28;20496;-32
2022/01/14 05:07:50;;;;;;;78.43;25.17;;;;;;;-3.48;87.19;97600.38;5096521;28;20427;-32
2022/01/14 05:10:35;;;;;;;42.40;16.20;;;;;;;-3.38;87.35;97593.44;5095768;28;20447;-32
2022/01/14 05:13:02;;;;;;;29.53;14.10;;;;;;;-3.23;86.97;97587.91;5095972;28;20451;-33
2022/01/14 05:15:30;;;;;;;94.10;35.50;;;;;;;-3.18;86.01;97606.53;5095947;28;20451;-33
2022/01/14 05:17:57;;;;;;;98.67;39.57;;;;;;;-3.27;84.63;97599.50;5096146;28;20537;-33
2022/01/14 05:20:26;;;;;;;71.97;32.17;;;;;;;-3.37;84.50;97605.47;5096169;28;20491;-33
2022/01/14 05:22:53;;;;;;;59.77;28.97;;;;;;;-3.55;84.41;97599.22;5096212;28;20449;-32
2022/01/14 05:25:20;;;;;;;72.03;33.63;;;;;;;-3.61;84.87;97597.16;5095967;28;20440;-32
2022/01/14 05:27:48;;;;;;;79.90;35.20;;;;;;;-3.62;85.18;97587.69;5096220;28;20513;-32
2022/01/14 05:30:16;;;;;;;65.27;28.97;;;;;;;-3.62;85.04;97585.91;5096208;28;20797;-33
2022/01/14 05:32:47;;;;;;;60.47;24.07;;;;;;;-3.64;85.12;97587.00;5095809;28;20443;-32
2022/01/14 05:35:16;;;;;;;67.57;25.77;;;;;;;-3.63;85.30;97576.50;5096070;28;20531;-33
2022/01/14 05:37:45;;;;;;;61.73;22.07;;;;;;;-3.68;85.47;97572.63;5096041;28;20447;-32
2022/01/14 05:40:14;;;;;;;105.57;36.53;;;;;;;-3.60;85.29;97572.81;5095809;28;20852;-33
2022/01/14 05:42:42;;;;;;;46.80;21.00;;;;;;;-3.70;84.90;97567.56;5095572;28;20435;-32
2022/01/14 05:45:11;;;;;;;55.20;23.00;;;;;;;-3.76;85.13;97566.31;5095486;28;20439;-32
2022/01/14 05:47:38;;;;;;;59.33;28.47;;;;;;;-3.88;85.43;97562.13;5095682;28;20465;-32
2022/01/14 05:50:09;;;;;;;80.23;39.80;;;;;;;-3.90;85.72;97553.66;5095329;28;21040;-32
2022/01/14 05:52:36;;;;;;;16.53;10.50;;;;;;;-3.95;85.71;97558.41;5095252;28;20471;-33
2022/01/14 05:55:05;;;;;;;38.90;19.30;;;;;;;-3.99;85.96;97557.03;5095693;28;20802;-32
2022/01/14 05:57:34;;;;;;;39.93;17.20;;;;;;;-4.05;86.40;97531.56;5094965;28;20473;-32
2022/01/14 06:00:02;;;;;;;55.43;23.03;;;;;;;-3.93;86.80;97543.53;5095487;28;20494;-31
2022/01/14 06:02:29;;;;;;;43.80;18.20;;;;;;;-3.73;86.86;97545.28;5095063;28;20892;-32
2022/01/14 06:04:56;;;;;;;31.57;14.60;;;;;;;-3.45;86.56;97542.97;5095154;28;20435;-32
2022/01/14 06:07:23;;;;;;;264.80;95.30;;;;;;;-3.12;86.29;97546.22;5094920;28;20952;-32
2022/01/14 06:09:50;;;;;;;84.27;30.40;;;;;;;-2.83;84.46;97548.09;5094839;28;20470;-32
2022/01/14 06:12:19;;;;;;;25.73;12.53;;;;;;;-2.53;83.63;97544.59;5094875;28;20942;-31
2022/01/14 06:14:46;;;;;;;21.10;9.20;;;;;;;-2.36;81.80;97535.31;5094839;28;20923;-32
2022/01/14 06:17:14;;;;;;;20.17;10.27;;;;;;;-2.16;80.84;97543.91;5094784;28;20956;-32
2022/01/14 06:19:41;;;;;;;34.30;15.70;;;;;;;-1.96;80.25;97534.31;5094606;28;21077;-33
2022/01/14 06:22:08;;;;;;;31.63;19.50;;;;;;;-1.58;79.99;97535.19;5092910;28;20442;-32
2022/01/14 06:24:38;;;;;;;14.67;7.73;;;;;;;-1.42;78.05;97519.78;5094373;28;20453;-32
2022/01/14 06:27:06;;;;;;;36.10;17.47;;;;;;;-0.96;77.19;97531.09;5094755;28;20427;-32
2022/01/14 06:29:35;;;;;;;38.47;18.33;;;;;;;-0.67;75.64;97524.88;5094864;28;20439;-32
2022/01/14 06:32:02;;;;;;;38.50;20.20;;;;;;;-0.33;75.66;97516.41;5094790;28;20512;-31
2022/01/14 06:34:31;;;;;;;26.77;16.00;;;;;;;-0.14;74.18;97518.03;5094713;28;20443;-32
2022/01/14 06:36:59;;;;;;;48.27;18.80;;;;;;;0.25;73.50;97518.47;5094436;28;20442;-32
2022/01/14 06:39:30;;;;;;;45.80;24.07;;;;;;;0.39;71.95;97511.88;5094436;28;20490;-34
2022/01/14 06:41:57;;;;;;;32.23;18.60;;;;;;;0.74;71.96;97529.22;5094675;28;20438;-32
2022/01/14 06:44:24;;;;;;;46.10;27.83;;;;;;;0.94;71.00;97521.13;5094846;28;20445;-31
2022/01/14 06:46:53;;;;;;;31.57;17.83;;;;;;;1.18;70.36;97512.53;5094397;28;20478;-32
2022/01/14 06:49:23;;;;;;;19.93;12.13;;;;;;;1.22;69.69;97495.53;5094581;28;20434;-32
2022/01/14 06:52:03;;;;;;;26.60;14.60;;;;;;;1.41;69.75;97512.75;5093053;28;20504;-32
2022/01/14 06:54:36;;;;;;;17.17;11.20;;;;;;;1.33;67.72;97494.41;5094679;28;20474;-33
2022/01/14 06:57:04;;;;;;;18.17;10.23;;;;;;;1.31;68.11;97512.06;5094544;28;20551;-32
2022/01/14 06:59:32;;;;;;;10.33;6.90;;;;;;;1.29;68.42;97516.66;5094215;28;20518;-31
2022/01/14 07:02:01;;;;;;;6.40;5.80;;;;;;;1.39;71.51;97507.69;5094038;28;20439;-32
2022/01/14 07:04:28;;;;;;;19.97;8.60;;;;;;;1.50;71.36;97474.34;5094081;28;20439;-31
2022/01/14 07:06:56;;;;;;;15.53;9.77;;;;;;;1.89;71.13;97516.41;5093997;28;20470;-32
2022/01/14 07:09:23;;;;;;;30.50;11.30;;;;;;;2.26;72.85;97504.63;5093843;28;20960;-32
2022/01/14 07:11:56;;;;;;;16.97;9.67;;;;;;;2.50;70.03;97518.66;5093877;28;20443;-33
2022/01/14 07:14:24;;;;;;;23.60;11.53;;;;;;;2.82;70.40;97528.25;5093920;28;20902;-33
2022/01/14 07:16:51;;;;;;;20.23;9.87;;;;;;;3.10;70.77;97515.50;5093813;28;20440;-33
2022/01/14 07:19:22;;;;;;;12.67;8.27;;;;;;;3.21;68.68;97507.25;5093648;28;20483;-33
2022/01/14 07:21:50;;;;;;;13.00;8.00;;;;;;;2.81;70.64;97474.94;5093944;28;20443;-31
2022/01/14 07:24:17;;;;;;;14.63;8.10;;;;;;;2.73;72.25;97501.22;5093861;28;20530;-32
2022/01/14 07:26:46;;;;;;;10.43;5.80;;;;;;;2.71;76.54;97495.31;5093609;28;20438;-32
2022/01/14 07:29:16;;;;;;;7.23;5.03;;;;;;;2.79;78.07;97507.56;5093462;28;20443;-32
2022/01/14 07:31:44;;;;;;;7.30;5.90;;;;;;;2.79;78.41;97497.91;5093842;28;20798;-33
2022/01/14 07:34:11;;;;;;;4.33;2.70;;;;;;;2.81;77.51;97492.50;5093407;28;20435;-32
2022/01/14 07:36:40;;;;;;;6.47;4.23;;;;;;;2.82;76.83;97481.84;5093501;28;20439;-31
2022/01/14 07:39:07;;;;;;;5.63;4.00;;;;;;;2.76;76.74;97474.66;5093306;28;20447;-32
2022/01/14 07:41:37;;;;;;;7.53;4.80;;;;;;;2.67;76.16;97465.19;5093483;28;20442;-32
2022/01/14 07:44:05;;;;;;;7.00;5.47;;;;;;;2.68;76.06;97456.31;5093469;28;20443;-32
2022/01/14 07:46:32;;;;;;;13.73;8.40;;;;;;;3.09;76.04;97461.38;5093516;28;20443;-33
2022/01/14 07:48:59;;;;;;;19.03;12.07;;;;;;;3.50;74.27;97453.25;5093362;28;20477;-32
2022/01/14 07:51:26;;;;;;;15.70;10.37;;;;;;;3.86;72.93;97447.38;5093555;28;20446;-33
2022/01/14 07:53:56;;;;;;;7.53;4.23;;;;;;;4.32;71.14;97452.53;5093425;28;20443;-32
2022/01/14 07:56:24;;;;;;;14.00;6.80;;;;;;;4.58;69.73;97451.25;5093026;28;20496;-31
2022/01/14 07:58:51;;;;;;;6.53;4.13;;;;;;;4.69;67.33;97453.44;5093591;28;20511;-32
2022/01/14 08:01:18;;;;;;;9.73;5.20;;;;;;;4.83;67.92;97444.72;5093068;28;20486;-32
2022/01/14 08:03:45;;;;;;;7.53;4.83;;;;;;;5.05;66.93;97444.75;5093235;28;20503;-32
2022/01/14 08:06:14;;;;;;;9.30;5.30;;;;;;;5.17;66.33;97443.28;5093494;28;20492;-32
2022/01/14 08:08:41;;;;;;;7.37;5.30;;;;;;;5.38;66.29;97444.28;5093052;28;20449;-32
2022/01/14 08:11:10;;;;;;;5.63;3.10;;;;;;;5.45;65.45;97471.53;5093544;28;20454;-32
2022/01/14 08:13:40;;;;;;;7.33;3.80;;;;;;;5.53;64.90;97445.06;5093090;28;20439;-31
2022/01/14 08:16:10;;;;;;;7.40;5.03;;;;;;;5.49;64.54;97430.66;5093166;28;20989;-31
2022/01/14 08:18:45;;;;;;;8.10;4.60;;;;;;;5.37;64.29;97413.72;5093377;28;20443;-32
2022/01/14 08:21:12;;;;;;;7.40;4.67;;;;;;;5.48;64.95;97415.84;5093350;28;20479;-32
2022/01/14 08:23:40;;;;;;;10.13;4.50;;;;;;;5.62;64.87;97417.59;5093067;28;20439;-32
2022/01/14 08:26:07;;;;;;;31.97;13.77;;;;;;;5.65;64.71;97401.41;5092888;28;20957;-32
2022/01/14 08:28:36;;;;;;;9.83;6.03;;;;;;;5.90;64.98;97411.53;5093349;28;20446;-31
2022/01/14 08:31:03;;;;;;;8.63;6.00;;;;;;;5.94;64.27;97399.63;5093147;28;20453;-32
2022/01/14 08:33:30;;;;;;;11.63;6.93;;;;;;;6.13;63.90;97409.50;5093341;28;20443;-32
2022/01/14 08:35:58;;;;;;;15.70;9.73;;;;;;;6.28;64.29;97413.84;5092876;28;20449;-32
2022/01/14 08:38:25;;;;;;;14.90;6.57;;;;;;;6.38;64.07;97411.69;5093232;28;20443;-32
2022/01/14 08:40:52;;;;;;;10.00;6.33;;;;;;;6.52;63.35;97413.38;5093124;28;20497;-31
2022/01/14 08:43:21;;;;;;;13.63;9.10;;;;;;;6.53;62.96;97404.44;5093233;28;20442;-31
2022/01/14 08:45:49;;;;;;;9.10;6.30;;;;;;;6.57;62.66;97384.59;5096099;28;20550;-32
2022/01/14 08:48:18;;;;;;;12.93;6.97;;;;;;;6.65;62.67;97386.25;5096500;28;20443;-33
2022/01/14 08:50:46;;;;;;;9.13;6.37;;;;;;;6.68;62.39;97392.97;5096874;28;20782;-33
2022/01/14 08:53:14;;;;;;;6.80;4.80;;;;;;;6.80;62.45;97409.03;5096487;28;20533;-32
2022/01/14 08:55:42;;;;;;;7.77;7.07;;;;;;;6.70;62.70;97383.03;5096481;28;20485;-32
2022/01/14 08:58:10;;;;;;;8.73;6.07;;;;;;;7.02;62.78;97404.47;5096147;28;20478;-32
2022/01/14 09:00:37;;;;;;;9.70;4.53;;;;;;;7.18;61.74;97407.56;5096342;28;20490;-31
2022/01/14 09:03:07;;;;;;;7.27;4.50;;;;;;;7.23;61.07;97406.94;5096360;28;20443;-31
2022/01/14 09:05:34;;;;;;;7.60;4.27;;;;;;;7.14;59.35;97405.50;5096352;28;20454;-32
2022/01/14 09:08:04;;;;;;;7.40;3.70;;;;;;;7.03;60.21;97411.34;5095099;28;20439;-35
2022/01/14 09:10:31;;;;;;;4.80;3.00;;;;;;;6.95;60.64;97402.59;5092530;28;20439;-34
2022/01/14 09:12:58;;;;;;;4.77;3.20;;;;;;;6.79;61.70;97402.94;5093157;28;20511;-33
2022/01/14 09:15:25;;;;;;;8.10;6.63;;;;;;;6.72;62.37;97399.47;5095424;28;20458;-32
2022/01/14 09:17:52;;;;;;;28.67;12.77;;;;;;;6.56;61.40;97408.53;5096082;28;20446;-33
2022/01/14 09:20:21;;;;;;;15.13;9.77;;;;;;;6.63;61.98;97411.22;5097082;28;20593;-32
2022/01/14 09:22:51;;;;;;;12.93;6.80;;;;;;;6.52;61.78;97402.84;5096362;28;20445;-33
2022/01/14 09:25:20;;;;;;;24.80;12.23;;;;;;;6.51;61.66;97411.75;5095882;28;20947;-33
2022/01/14 09:27:50;;;;;;;13.70;5.03;;;;;;;6.65;60.99;97386.25;5095944;28;20797;-33
2022/01/14 09:30:18;;;;;;;24.73;12.43;;;;;;;6.60;61.46;97366.72;5095938;28;20933;-33
2022/01/14 09:32:45;;;;;;;21.40;11.27;;;;;;;6.71;60.38;97384.63;5096056;28;20529;-31
2022/01/14 09:35:13;;;;;;;30.47;11.47;;;;;;;6.59;60.91;97355.38;5096544;28;20439;-30
2022/01/14 09:37:44;;;;;;;12.33;5.50;;;;;;;6.65;61.13;97377.53;5095507;28;20451;-32
2022/01/14 09:40:14;;;;;;;23.23;8.83;;;;;;;6.62;60.85;97364.72;5095917;28;20485;-31
2022/01/14 09:42:42;;;;;;;48.87;23.87;;;;;;;6.44;62.14;97334.41;5095550;28;20445;-32
2022/01/14 09:45:10;;;;;;;22.50;11.33;;;;;;;6.49;62.54;97360.19;5095495;28;20445;-30
2022/01/14 09:47:40;;;;;;;19.80;11.63;;;;;;;6.43;63.04;97348.63;5095739;28;20826;-31
2022/01/14 09:50:07;;;;;;;16.47;8.70;;;;;;;6.29;62.82;97358.28;5095385;28;20934;-30
2022/01/14 09:52:35;;;;;;;18.90;10.33;;;;;;;6.36;64.13;97345.91;5093771;28;20435;-32
2022/01/14 09:55:04;;;;;;;23.30;11.00;;;;;;;6.38;64.29;97340.47;5091143;28;20443;-32
2022/01/14 09:57:32;;;;;;;32.67;11.03;;;;;;;6.38;64.62;97347.56;5095015;28;20974;-31
2022/01/14 09:59:59;;;;;;;27.27;13.50;;;;;;;6.37;65.68;97346.75;5095571;28;20464;-31
2022/01/14 10:02:32;;;;;;;32.27;17.30;;;;;;;6.34;65.57;97341.84;5095540;28;20546;-33
2022/01/14 10:05:00;;;;;;;44.40;16.53;;;;;;;6.30;66.07;97340.63;5095282;28;20442;-32
2022/01/14 10:07:27;;;;;;;35.70;15.27;;;;;;;6.29;66.40;97329.25;5095028;28;20482;-31
2022/01/14 10:10:00;;;;;;;32.43;14.37;;;;;;;6.32;66.51;97322.78;5095259;28;20456;-30
2022/01/14 10:12:33;;;;;;;42.57;16.17;;;;;;;6.23;67.24;97318.69;5095090;28;20435;-30
2022/01/14 10:15:02;;;;;;;38.57;13.00;;;;;;;6.28;66.86;97321.53;5095249;28;20424;-32
2022/01/14 10:17:38;;;;;;;53.83;18.83;;;;;;;6.28;67.48;97306.56;5094849;28;20447;-32
2022/01/14 10:20:08;;;;;;;49.83;18.03;;;;;;;6.36;68.04;97311.63;5094715;28;20439;-32
2022/01/14 10:22:36;;;;;;;35.97;17.13;;;;;;;6.36;67.28;97305.56;5094688;28;20443;-31
2022/01/14 10:25:07;;;;;;;65.03;19.37;;;;;;;6.41;67.11;97302.31;5095092;28;20439;-31
2022/01/14 10:27:39;;;;;;;60.23;22.20;;;;;;;6.33;66.83;97287.50;5094987;28;20752;-31
2022/01/14 10:30:15;;;;;;;56.13;17.60;;;;;;;6.46;66.88;97286.75;5094633;28;20518;-31
2022/01/14 10:32:45;;;;;;;42.07;12.80;;;;;;;6.34;67.52;97289.91;5094512;28;20813;-31
2022/01/14 10:35:15;;;;;;;29.27;10.40;;;;;;;6.31;66.56;97284.25;5094591;28;20451;-31
2022/01/14 10:37:43;;;;;;;41.57;15.47;;;;;;;6.32;66.80;97280.59;5094924;28;20446;-31
2022/01/14 10:40:19;;;;;;;19.93;9.83;;;;;;;6.39;66.77;97273.53;5094324;28;20450;-30
2022/01/14 10:42:50;;;;;;;23.90;12.10;;;;;;;6.47;67.78;97267.25;5094715;28;20427;-31
2022/01/14 10:45:22;;;;;;;71.33;28.43;;;;;;;6.24;68.91;97252.56;5094347;28;20521;-31
2022/01/14 10:47:57;;;;;;;42.17;17.80;;;;;;;6.21;69.87;97247.69;5094361;28;20523;-33
2022/01/14 10:50:36;;;;;;;38.40;15.77;;;;;;;6.28;69.10;97242.44;5073994;28;20903;-31
2022/01/14 10:53:15;;;;;;;40.20;19.60;;;;;;;6.18;69.73;97248.09;5074314;28;20435;-31
2022/01/14 10:55:44;;;;;;;31.83;13.23;;;;;;;6.29;69.13;97226.41;5074268;28;20483;-32
2022/01/14 10:58:18;;;;;;;8.63;6.60;;;;;;;6.32;66.82;97227.84;5073636;28;20479;-32
2022/01/14 11:00:47;;;;;;;15.67;7.67;;;;;;;6.27;66.93;97209.97;5073781;28;20475;-31
2022/01/14 11:03:15;;;;;;;14.60;7.53;;;;;;;6.33;66.46;97209.19;5074041;28;20451;-31
2022/01/14 11:05:43;;;;;;;11.17;6.00;;;;;;;6.37;65.15;97188.50;5073704;28;20447;-31
2022/01/14 11:08:11;;;;;;;8.63;5.73;;;;;;;6.39;65.06;97183.84;5073614;28;20490;-31
2022/01/14 11:10:40;;;;;;;9.43;6.40;;;;;;;6.37;65.49;97185.88;5074110;28;20479;-31
2022/01/14 11:13:11;;;;;;;9.60;5.90;;;;;;;6.33;66.07;97179.38;5073893;28;21018;-31
2022/01/14 11:15:40;;;;;;;5.93;4.47;;;;;;;6.44;65.51;97168.22;5073619;28;20784;-31
2022/01/14 11:18:10;;;;;;;5.33;3.60;;;;;;;6.43;65.21;97166.63;5073522;28;20436;-30
2022/01/14 11:23:14;;;;;;;6.00;3.33;;;;;;;6.40;65.40;97156.44;5073318;28;20852;-31
2022/01/14 11:23:24;;;;;;;6.77;4.33;;;;;;;6.53;64.54;97179.41;5073451;28;20428;-30
2022/01/14 11:25:57;;;;;;;7.30;4.63;;;;;;;6.55;64.36;97185.28;5073754;28;20440;-32
2022/01/14 11:28:29;;;;;;;36.43;14.60;;;;;;;6.62;64.96;97178.19;5073494;28;20439;-33
2022/01/14 11:30:58;;;;;;;19.57;8.60;;;;;;;6.70;63.47;97167.44;5073666;28;20435;-31
2022/01/14 11:33:43;;;;;;;19.83;11.13;;;;;;;6.80;63.81;97167.06;5073835;28;20946;-31
2022/01/14 11:36:11;;;;;;;24.20;12.53;;;;;;;6.84;63.55;97175.34;5073315;28;20443;-30
2022/01/14 11:38:41;;;;;;;10.43;5.13;;;;;;;6.95;64.00;97165.00;5073693;28;20448;-30
2022/01/14 11:41:10;;;;;;;24.50;7.47;;;;;;;7.06;64.62;97162.78;5073573;28;20480;-31
2022/01/14 11:43:56;;;;;;;15.73;8.37;;;;;;;7.09;63.59;97155.25;5073629;28;20466;-31
2022/01/14 11:46:47;;;;;;;14.83;6.63;;;;;;;7.14;62.35;97152.81;5073642;28;20432;-30
2022/01/14 11:49:35;;;;;;;13.17;6.90;;;;;;;7.22;63.77;97148.31;5073188;28;20861;-31
2022/01/14 11:52:07;;;;;;;6.53;4.30;;;;;;;7.26;63.71;97149.53;5073183;28;20950;-31
2022/01/14 11:54:45;;;;;;;10.03;4.50;;;;;;;7.29;64.23;97149.13;5073198;28;20916;-32
2022/01/14 11:57:34;;;;;;;12.17;6.13;;;;;;;7.36;66.03;97142.81;5072897;28;20979;-31